KSPS/SPS METAR and TAF weather

Enter ICAO airport designator
Station Type Date Time Source
KSPS METAR 2021/09/20 03:52 UTC NOAA

KSPS 200352Z 15011KT 10SM CLR 26/17 A2983 RMK AO2 SLP086 T02610172


Station Type Date Time Source
KSPS Decoded METAR 2021/09/20 03:52 UTC NOAA

WICHITA FALLS SHEPPARD AFB, TX, United States (KSPS) 33-59N 98-30W 308M
Sep 19, 2021 - 11:52 PM EDT / 2021.09.20 0352 UTC
Wind: from the SSE (150 degrees) at 13 MPH (11 KT):0
Visibility: 10 mile(s):0
Sky conditions: clear
Temperature: 79.0 F (26.1 C)
Dew Point: 63.0 F (17.2 C)
Relative Humidity: 58%
Pressure (altimeter): 29.83 in. Hg (1010 hPa)
ob: KSPS 200352Z 15011KT 10SM CLR 26/17 A2983 RMK AO2 SLP086 T02610172
cycle: 4

Station Type Date Time Source
KSPS TAF 2021/09/19 18:30 UTC NOAA

TAF KSPS 191729Z 1918/2018 19007KT P6SM FEW040
FM192300 15009KT P6SM SKC

Example: see airport list